Time;durP1;ratioP1;P1;durP2;ratioP2;P2;SDS_P1;SDS_P2;PMS_P1;PMS_P2;Temp;Humidity;BMP_temperature;BMP_pressure;BME280_temperature;BME280_humidity;BME280_pressure;Samples;Min_cycle;Max_cycle;Signal;HPM_P1;HPM_P2
2023/09/24 00:02:07;;;;;;;6.70;6.30;;;17.00;99.90;;;;;;5013448;28;20426;-72
2023/09/24 00:04:32;;;;;;;5.87;5.47;;;16.90;99.90;;;;;;5012516;28;20520;-73
2023/09/24 00:06:58;;;;;;;6.00;5.50;;;16.80;99.90;;;;;;5013109;28;20766;-73
2023/09/24 00:09:24;;;;;;;7.60;6.40;;;16.80;99.90;;;;;;5012950;28;20171;-73
2023/09/24 00:11:50;;;;;;;6.90;6.30;;;16.70;99.90;;;;;;5012441;28;20622;-73
2023/09/24 00:14:15;;;;;;;6.53;5.93;;;16.70;99.90;;;;;;5012641;28;20249;-73
2023/09/24 00:16:41;;;;;;;7.50;6.90;;;16.60;99.90;;;;;;5012407;28;20627;-73
2023/09/24 00:19:07;;;;;;;6.40;5.90;;;16.60;99.90;;;;;;5013391;28;20178;-73
2023/09/24 00:21:32;;;;;;;6.70;6.10;;;16.50;99.90;;;;;;5011842;28;20186;-73
2023/09/24 00:23:58;;;;;;;6.07;5.60;;;16.50;99.90;;;;;;5012406;28;20193;-73
2023/09/24 00:26:27;;;;;;;6.13;5.73;;;16.50;99.90;;;;;;5013286;28;20205;-72
2023/09/24 00:28:53;;;;;;;6.87;6.37;;;16.50;99.90;;;;;;5011812;28;20538;-73
2023/09/24 00:31:18;;;;;;;7.03;6.53;;;16.50;99.90;;;;;;5012275;28;20517;-72
2023/09/24 00:33:44;;;;;;;8.63;6.50;;;16.40;99.90;;;;;;5011751;28;20268;-72
2023/09/24 00:36:11;;;;;;;7.80;6.60;;;16.40;99.90;;;;;;5011550;28;20180;-73
2023/09/24 00:38:38;;;;;;;7.67;7.00;;;16.40;99.90;;;;;;5011840;28;20175;-73
2023/09/24 00:41:04;;;;;;;7.20;6.50;;;16.40;99.90;;;;;;5012237;28;20520;-73
2023/09/24 00:43:34;;;;;;;6.77;6.30;;;16.40;99.90;;;;;;5011843;28;20836;-73
2023/09/24 00:46:07;;;;;;;6.80;6.30;;;16.40;99.90;;;;;;5012317;28;20186;-73
2023/09/24 00:48:34;;;;;;;6.70;6.17;;;16.40;99.90;;;;;;5012840;28;20764;-67
2023/09/24 00:51:18;;;;;;;7.60;6.90;;;16.40;99.90;;;;;;5012300;28;20429;-73
2023/09/24 00:53:46;;;;;;;6.50;6.00;;;16.40;99.90;;;;;;5011625;28;20449;-72
2023/09/24 00:56:13;;;;;;;8.03;6.30;;;16.40;99.90;;;;;;5012081;28;20445;-73
2023/09/24 00:58:40;;;;;;;6.63;6.13;;;16.30;99.90;;;;;;5012425;28;20416;-73
2023/09/24 01:01:09;;;;;;;6.47;5.93;;;16.30;99.90;;;;;;5012523;28;20428;-73
2023/09/24 01:03:39;;;;;;;7.23;6.60;;;16.30;99.90;;;;;;5011332;28;20425;-73
2023/09/24 01:06:06;;;;;;;6.77;6.20;;;16.30;99.90;;;;;;5012639;28;20394;-74
2023/09/24 01:08:33;;;;;;;7.23;6.60;;;16.20;99.90;;;;;;5010564;28;20974;-63
2023/09/24 01:11:01;;;;;;;7.17;6.77;;;16.20;99.90;;;;;;5011902;28;20444;-73
2023/09/24 01:13:37;;;;;;;6.93;6.37;;;16.20;99.90;;;;;;5010514;28;20484;-73
2023/09/24 01:16:05;;;;;;;6.97;6.37;;;16.10;99.90;;;;;;5011990;28;20442;-72
2023/09/24 01:18:31;;;;;;;7.07;6.47;;;16.10;99.90;;;;;;5011344;28;20512;-72
2023/09/24 01:20:58;;;;;;;7.33;6.83;;;16.10;99.90;;;;;;5011258;28;20980;-72
2023/09/24 01:23:24;;;;;;;5.73;5.33;;;16.00;99.90;;;;;;5011934;28;20197;-73
2023/09/24 01:25:51;;;;;;;6.37;5.73;;;16.00;99.90;;;;;;5011941;28;20433;-73
2023/09/24 01:28:16;;;;;;;6.33;5.80;;;15.90;99.90;;;;;;5011444;28;20665;-73
2023/09/24 01:30:44;;;;;;;6.93;6.20;;;15.90;99.90;;;;;;5011185;28;20426;-73
2023/09/24 01:33:09;;;;;;;6.53;6.13;;;15.90;99.90;;;;;;5012684;28;20642;-73
2023/09/24 01:35:36;;;;;;;6.53;5.93;;;15.80;99.90;;;;;;5010879;28;20432;-72
2023/09/24 01:38:05;;;;;;;6.90;6.30;;;15.80;99.90;;;;;;5010953;28;20202;-73
2023/09/24 01:40:38;;;;;;;7.40;6.80;;;15.80;99.90;;;;;;5012289;28;20501;-73
2023/09/24 01:43:10;;;;;;;7.63;7.03;;;15.70;99.90;;;;;;5010941;28;20498;-74
2023/09/24 01:45:39;;;;;;;6.90;6.20;;;15.70;99.90;;;;;;5011142;28;20461;-72
2023/09/24 01:48:06;;;;;;;7.00;6.40;;;15.70;99.90;;;;;;5011735;28;20770;-73
2023/09/24 01:50:33;;;;;;;6.83;6.30;;;15.70;99.90;;;;;;5012313;28;20433;-73
2023/09/24 01:52:59;;;;;;;7.60;6.80;;;15.70;99.90;;;;;;5011019;28;20437;-73
2023/09/24 01:55:26;;;;;;;7.33;6.73;;;15.70;99.90;;;;;;5011796;28;20968;-73
2023/09/24 01:57:53;;;;;;;6.37;5.87;;;15.60;99.90;;;;;;5011565;28;20453;-72
2023/09/24 02:00:25;;;;;;;6.63;6.20;;;15.60;99.90;;;;;;5009525;28;20441;-72
2023/09/24 02:02:52;;;;;;;6.63;6.10;;;15.60;99.90;;;;;;5011075;28;20520;-72
2023/09/24 02:05:19;;;;;;;6.33;5.93;;;15.60;99.90;;;;;;5011551;28;20433;-72
2023/09/24 02:07:51;;;;;;;6.83;6.27;;;15.50;99.90;;;;;;5011512;28;20459;-72
2023/09/24 02:10:18;;;;;;;7.27;6.67;;;15.60;99.90;;;;;;5011357;28;20472;-73
2023/09/24 02:12:45;;;;;;;7.80;6.97;;;15.50;99.90;;;;;;5010704;28;20456;-72
2023/09/24 02:15:18;;;;;;;7.43;6.93;;;15.50;99.90;;;;;;5012299;28;20833;-72
2023/09/24 02:17:45;;;;;;;7.93;7.33;;;15.50;99.90;;;;;;5010134;28;20555;-72
2023/09/24 02:20:20;;;;;;;7.50;6.80;;;15.50;99.90;;;;;;5015060;28;20946;-73
2023/09/24 02:22:46;;;;;;;7.50;6.90;;;15.50;99.90;;;;;;5014388;28;20742;-72
2023/09/24 02:25:13;;;;;;;7.60;7.00;;;15.50;99.90;;;;;;5015497;28;20418;-73
2023/09/24 02:27:40;;;;;;;7.57;6.90;;;15.50;99.90;;;;;;5014299;28;20442;-72
2023/09/24 02:30:07;;;;;;;7.33;6.73;;;15.50;99.90;;;;;;5015241;28;20444;-73
2023/09/24 02:32:33;;;;;;;7.73;6.93;;;15.50;99.90;;;;;;5014301;28;20437;-72
2023/09/24 02:34:58;;;;;;;7.80;6.30;;;15.50;99.90;;;;;;5014060;28;20436;-73
2023/09/24 02:37:28;;;;;;;7.00;6.50;;;15.50;99.90;;;;;;5014604;28;20238;-74
2023/09/24 02:39:54;;;;;;;8.10;6.73;;;15.40;99.90;;;;;;5014871;28;20414;-72
2023/09/24 02:42:21;;;;;;;7.93;7.10;;;15.40;99.90;;;;;;5014694;28;20507;-73
2023/09/24 02:44:48;;;;;;;9.30;7.10;;;15.40;99.90;;;;;;5013417;28;20511;-72
2023/09/24 02:47:15;;;;;;;6.50;6.10;;;15.40;99.90;;;;;;5015324;28;20472;-73
2023/09/24 02:49:41;;;;;;;6.70;6.20;;;15.30;99.90;;;;;;5013050;28;20428;-72
2023/09/24 02:52:08;;;;;;;6.87;6.30;;;15.30;99.90;;;;;;5014391;28;20776;-72
2023/09/24 02:54:34;;;;;;;8.40;6.33;;;15.20;99.90;;;;;;5015361;28;20415;-73
2023/09/24 02:57:00;;;;;;;7.60;7.00;;;15.20;99.90;;;;;;5013549;28;20457;-73
2023/09/24 02:59:25;;;;;;;6.60;6.10;;;15.20;99.90;;;;;;5013759;28;20789;-73
2023/09/24 03:01:52;;;;;;;7.17;6.67;;;15.20;99.90;;;;;;5013550;28;20183;-69
2023/09/24 03:04:18;;;;;;;7.37;6.77;;;15.20;99.90;;;;;;5015062;28;20227;-72
2023/09/24 03:06:45;;;;;;;6.97;6.27;;;15.10;99.90;;;;;;5013400;28;20456;-72
2023/09/24 03:09:11;;;;;;;7.43;6.70;;;15.10;99.90;;;;;;5013874;28;20441;-72
2023/09/24 03:11:37;;;;;;;6.50;6.10;;;15.00;99.90;;;;;;5013336;28;20432;-72
2023/09/24 03:14:06;;;;;;;6.87;6.27;;;15.00;99.90;;;;;;5014588;28;20641;-72
2023/09/24 03:16:32;;;;;;;6.40;5.90;;;15.00;99.90;;;;;;5011897;28;20472;-72
2023/09/24 03:18:59;;;;;;;7.03;6.43;;;15.00;99.90;;;;;;5012953;28;20535;-72
2023/09/24 03:21:25;;;;;;;6.97;6.37;;;14.90;99.90;;;;;;5014776;28;20236;-72
2023/09/24 03:23:52;;;;;;;6.90;6.40;;;14.90;99.90;;;;;;5013175;28;20429;-72
2023/09/24 03:26:19;;;;;;;7.10;6.50;;;14.80;99.90;;;;;;5013638;28;20441;-72
2023/09/24 03:28:46;;;;;;;6.77;6.27;;;14.80;99.90;;;;;;5013045;28;20439;-73
2023/09/24 03:31:13;;;;;;;6.77;6.20;;;14.80;99.90;;;;;;5013832;28;20463;-72
2023/09/24 03:33:39;;;;;;;7.10;6.60;;;14.80;99.90;;;;;;5013608;28;20429;-72
2023/09/24 03:36:07;;;;;;;7.10;6.60;;;14.80;99.90;;;;;;5012766;28;20432;-73
2023/09/24 03:38:33;;;;;;;6.40;5.80;;;14.80;99.90;;;;;;5014015;28;20239;-72
2023/09/24 03:40:59;;;;;;;7.30;6.53;;;14.80;99.90;;;;;;5012775;28;20785;-73
2023/09/24 03:43:25;;;;;;;6.47;5.87;;;14.70;99.90;;;;;;5012873;28;20434;-73
2023/09/24 03:45:51;;;;;;;7.33;6.80;;;14.70;99.90;;;;;;5013679;28;20401;-73
2023/09/24 03:48:17;;;;;;;7.60;7.03;;;14.70;99.90;;;;;;5013284;28;20200;-73
2023/09/24 03:50:44;;;;;;;6.30;5.90;;;14.70;99.90;;;;;;5012465;28;20454;-72
2023/09/24 03:53:09;;;;;;;7.67;6.73;;;14.70;99.90;;;;;;4994590;28;20401;-73
2023/09/24 03:55:35;;;;;;;6.97;6.27;;;14.70;99.90;;;;;;5009531;28;20453;-73
2023/09/24 03:58:01;;;;;;;6.30;5.70;;;14.70;99.90;;;;;;5012519;28;20215;-73
2023/09/24 04:00:27;;;;;;;8.80;5.90;;;14.60;99.90;;;;;;5014179;28;20185;-73
2023/09/24 04:02:53;;;;;;;7.30;6.80;;;14.60;99.90;;;;;;5012234;28;20214;-73
2023/09/24 04:05:21;;;;;;;8.47;6.60;;;14.60;99.90;;;;;;5012894;28;20194;-73
2023/09/24 04:07:51;;;;;;;5.90;5.50;;;14.60;99.90;;;;;;5012465;28;20438;-73
2023/09/24 04:10:20;;;;;;;6.83;6.13;;;14.60;99.90;;;;;;5014085;28;20478;-72
2023/09/24 04:12:49;;;;;;;6.77;6.27;;;14.60;99.90;;;;;;5011786;28;20578;-72
2023/09/24 04:15:18;;;;;;;6.33;5.93;;;14.60;99.90;;;;;;5012525;28;20959;-73
2023/09/24 04:17:46;;;;;;;7.33;6.73;;;14.60;99.90;;;;;;5012278;28;20988;-62
2023/09/24 04:20:15;;;;;;;7.17;6.57;;;14.60;99.90;;;;;;5013410;28;20552;-73
2023/09/24 04:22:44;;;;;;;6.80;6.20;;;14.50;99.90;;;;;;5012555;28;20834;-73
2023/09/24 04:25:11;;;;;;;6.90;6.00;;;14.50;99.90;;;;;;5013528;28;20800;-73
2023/09/24 04:27:38;;;;;;;7.17;6.57;;;14.50;99.90;;;;;;5012549;28;20875;-73
2023/09/24 04:30:08;;;;;;;7.60;6.90;;;14.50;99.90;;;;;;5011682;28;21159;-73
2023/09/24 04:32:34;;;;;;;6.50;5.90;;;14.50;99.90;;;;;;5012954;28;20432;-73
2023/09/24 04:35:00;;;;;;;6.93;6.43;;;14.50;99.90;;;;;;5012549;28;20465;-73
2023/09/24 04:37:26;;;;;;;6.40;5.90;;;14.40;99.90;;;;;;5027371;28;20219;-73
2023/09/24 04:39:52;;;;;;;6.63;6.10;;;14.40;99.90;;;;;;5011660;28;20433;-73
2023/09/24 04:42:18;;;;;;;6.90;6.30;;;14.40;99.90;;;;;;5013130;28;20441;-72
2023/09/24 04:44:44;;;;;;;7.03;6.53;;;14.40;99.90;;;;;;5011880;28;20436;-72
2023/09/24 04:47:09;;;;;;;8.10;7.40;;;14.40;99.90;;;;;;5011865;28;20194;-72
2023/09/24 04:49:35;;;;;;;7.00;6.50;;;14.40;99.90;;;;;;5012342;28;20212;-71
2023/09/24 04:52:03;;;;;;;7.03;6.43;;;14.40;99.90;;;;;;5011824;28;20577;-72
2023/09/24 04:54:29;;;;;;;7.60;6.57;;;14.40;99.90;;;;;;5012019;28;20631;-73
2023/09/24 04:56:55;;;;;;;6.67;6.17;;;14.30;99.90;;;;;;5011199;28;20462;-72
2023/09/24 04:59:21;;;;;;;7.87;7.20;;;14.30;99.90;;;;;;5011438;28;20180;-64
2023/09/24 05:01:46;;;;;;;7.40;6.70;;;14.30;99.90;;;;;;5010301;28;20189;-69
2023/09/24 05:04:12;;;;;;;7.50;6.70;;;14.30;99.90;;;;;;5012072;28;20187;-72
2023/09/24 05:06:38;;;;;;;7.20;6.50;;;14.30;99.90;;;;;;5012756;28;20183;-73
2023/09/24 05:09:04;;;;;;;7.37;6.67;;;14.40;99.90;;;;;;5011682;28;20269;-73
2023/09/24 05:11:29;;;;;;;11.10;8.03;;;14.30;99.90;;;;;;5012035;28;20554;-72
2023/09/24 05:13:55;;;;;;;8.80;8.00;;;14.30;99.90;;;;;;5012367;28;20469;-72
2023/09/24 05:16:21;;;;;;;7.90;7.27;;;14.30;99.90;;;;;;5011605;28;20550;-72
2023/09/24 05:18:47;;;;;;;7.87;7.10;;;14.30;99.90;;;;;;5011502;28;20191;-60
2023/09/24 05:21:14;;;;;;;8.43;7.20;;;14.30;99.90;;;;;;5012514;28;20418;-71
2023/09/24 05:23:40;;;;;;;8.43;7.60;;;14.20;99.90;;;;;;5011816;28;20628;-74
2023/09/24 05:26:11;;;;;;;8.00;7.20;;;14.30;99.90;;;;;;5011179;28;20438;-69
2023/09/24 05:28:36;;;;;;;7.30;6.70;;;14.30;99.90;;;;;;5010112;28;20223;-69
2023/09/24 05:31:02;;;;;;;7.70;7.10;;;14.20;99.90;;;;;;5009021;28;20501;-69
2023/09/24 05:33:28;;;;;;;9.17;8.30;;;14.30;99.90;;;;;;5012664;28;20265;-70
2023/09/24 05:35:53;;;;;;;9.43;8.40;;;14.30;99.90;;;;;;5008145;28;20662;-69
2023/09/24 05:38:19;;;;;;;8.90;8.10;;;14.30;99.90;;;;;;5008806;28;20218;-70
2023/09/24 05:40:46;;;;;;;8.57;7.77;;;14.30;99.90;;;;;;5012210;28;20206;-69
2023/09/24 05:43:11;;;;;;;8.70;7.90;;;14.30;99.90;;;;;;5009676;28;20433;-67
2023/09/24 05:45:52;;;;;;;8.80;8.00;;;14.30;99.90;;;;;;5011140;28;20434;-70
2023/09/24 05:48:19;;;;;;;7.70;7.00;;;14.30;99.90;;;;;;5012412;28;20231;-69
2023/09/24 05:50:45;;;;;;;8.93;8.13;;;14.30;99.90;;;;;;5011441;28;20422;-70
2023/09/24 05:53:13;;;;;;;8.47;7.70;;;14.30;99.90;;;;;;5010348;28;20432;-69
2023/09/24 05:55:39;;;;;;;8.30;7.50;;;14.30;99.90;;;;;;5015095;28;20787;-69
2023/09/24 05:58:08;;;;;;;8.40;7.70;;;14.30;99.90;;;;;;5015284;28;20815;-68
2023/09/24 06:00:37;;;;;;;7.73;7.13;;;14.30;99.90;;;;;;5014612;28;20833;-68
2023/09/24 06:03:04;;;;;;;9.17;8.27;;;14.30;99.90;;;;;;5012343;28;20462;-69
2023/09/24 06:05:29;;;;;;;11.93;8.77;;;14.40;99.90;;;;;;5015832;28;20457;-69
2023/09/24 06:07:56;;;;;;;9.47;8.40;;;14.40;99.90;;;;;;5014090;28;20520;-69
2023/09/24 06:10:22;;;;;;;8.73;7.90;;;14.40;99.90;;;;;;5014951;28;20181;-69
2023/09/24 06:12:49;;;;;;;8.23;7.63;;;14.40;99.90;;;;;;5013614;28;20830;-69
2023/09/24 06:15:17;;;;;;;10.60;8.40;;;14.40;99.90;;;;;;5013913;28;20450;-69
2023/09/24 06:17:43;;;;;;;10.60;9.17;;;14.50;99.90;;;;;;5013464;28;20462;-69
2023/09/24 06:20:10;;;;;;;9.73;8.83;;;14.50;99.90;;;;;;5013582;28;20428;-69
2023/09/24 06:22:36;;;;;;;9.00;8.27;;;14.50;99.90;;;;;;5015292;28;20882;-69
2023/09/24 06:25:03;;;;;;;8.77;7.97;;;14.60;99.90;;;;;;5010451;28;20439;-70
2023/09/24 06:27:29;;;;;;;9.60;8.70;;;14.60;99.90;;;;;;5015171;28;20185;-70
2023/09/24 06:29:55;;;;;;;8.83;8.07;;;14.70;99.90;;;;;;5013409;28;20428;-62
2023/09/24 06:32:21;;;;;;;8.87;8.00;;;14.80;99.90;;;;;;5015613;28;20655;-69
2023/09/24 06:34:47;;;;;;;9.20;8.40;;;14.80;99.90;;;;;;5016859;28;20422;-69
2023/09/24 06:37:12;;;;;;;9.37;8.63;;;14.90;99.90;;;;;;4996554;28;20676;-68
2023/09/24 06:39:41;;;;;;;9.50;8.67;;;15.00;99.90;;;;;;5014214;28;20275;-69
2023/09/24 06:42:07;;;;;;;9.37;8.67;;;15.00;99.90;;;;;;5013401;28;20183;-69
2023/09/24 06:44:32;;;;;;;10.10;9.07;;;15.00;99.90;;;;;;5015072;28;20408;-75
2023/09/24 06:46:58;;;;;;;9.23;8.53;;;15.10;99.90;;;;;;5014683;28;20182;-74
2023/09/24 06:49:24;;;;;;;9.70;8.90;;;15.40;99.90;;;;;;5014067;28;20634;-74
2023/09/24 06:51:52;;;;;;;9.90;9.03;;;15.90;99.90;;;;;;5014916;28;20232;-74
2023/09/24 06:54:18;;;;;;;9.77;8.87;;;16.20;99.90;;;;;;5013270;28;20183;-74
2023/09/24 06:56:45;;;;;;;9.63;8.83;;;16.60;99.90;;;;;;5013156;28;20953;-74
2023/09/24 06:59:10;;;;;;;8.17;7.57;;;17.00;99.90;;;;;;5013145;28;20187;-74
2023/09/24 07:01:37;;;;;;;9.20;8.30;;;17.20;99.90;;;;;;5014613;28;20418;-74
2023/09/24 07:04:05;;;;;;;9.53;8.70;;;17.40;99.90;;;;;;5013098;28;20448;-74
2023/09/24 07:06:31;;;;;;;9.23;8.43;;;17.70;99.90;;;;;;5014610;28;20430;-74
2023/09/24 07:08:58;;;;;;;8.63;7.93;;;17.90;99.90;;;;;;5013106;28;20422;-73
2023/09/24 07:11:30;;;;;;;9.93;9.23;;;18.00;99.90;;;;;;5013414;28;20434;-73
2023/09/24 07:13:56;;;;;;;10.40;9.53;;;18.10;99.90;;;;;;5014067;28;20462;-61
2023/09/24 07:16:23;;;;;;;8.80;8.10;;;18.20;99.90;;;;;;5012021;28;20433;-73
2023/09/24 07:18:50;;;;;;;9.93;9.10;;;18.30;99.90;;;;;;5012952;28;20438;-73
2023/09/24 07:21:20;;;;;;;8.67;8.07;;;18.40;99.90;;;;;;5012368;28;20446;-66
2023/09/24 07:23:51;;;;;;;9.83;8.60;;;18.60;99.90;;;;;;5012798;28;20422;-71
2023/09/24 07:26:18;;;;;;;7.50;6.90;;;18.70;99.90;;;;;;5012585;28;20694;-68
2023/09/24 07:28:44;;;;;;;9.17;8.47;;;18.80;99.90;;;;;;5013074;28;20499;-71
2023/09/24 07:31:19;;;;;;;10.00;9.00;;;19.00;99.90;;;;;;5012240;28;20491;-70
2023/09/24 07:33:46;;;;;;;9.00;8.13;;;19.20;99.90;;;;;;5013151;28;20448;-70
2023/09/24 07:36:12;;;;;;;8.17;7.37;;;19.30;99.90;;;;;;5013104;28;20425;-71
2023/09/24 07:38:42;;;;;;;6.93;6.23;;;19.40;99.90;;;;;;5012846;28;20884;-69
2023/09/24 07:41:08;;;;;;;8.03;7.33;;;19.30;99.90;;;;;;5012843;28;20505;-71
2023/09/24 07:43:44;;;;;;;7.50;6.87;;;19.30;99.90;;;;;;5014121;28;20433;-71
2023/09/24 07:46:12;;;;;;;7.30;6.80;;;19.30;99.90;;;;;;5012288;28;20788;-71
2023/09/24 07:48:39;;;;;;;7.83;7.13;;;19.30;99.90;;;;;;5012978;28;20485;-70
2023/09/24 07:51:05;;;;;;;7.33;6.67;;;19.40;99.90;;;;;;5013439;28;20402;-76
2023/09/24 07:53:31;;;;;;;6.83;6.27;;;19.00;99.90;;;;;;5012228;28;20514;-72
2023/09/24 07:56:02;;;;;;;7.13;6.50;;;19.00;99.90;;;;;;5011784;28;20426;-66
2023/09/24 07:58:31;;;;;;;7.60;7.00;;;19.00;99.90;;;;;;5013531;28;20450;-73
2023/09/24 08:01:02;;;;;;;7.20;5.53;;;18.80;99.90;;;;;;5011982;28;20452;-65
2023/09/24 08:03:32;;;;;;;6.90;6.10;;;18.50;99.90;;;;;;5012600;28;20509;-73
2023/09/24 08:05:58;;;;;;;6.00;5.50;;;18.70;99.90;;;;;;5011487;28;20633;-69
2023/09/24 08:08:25;;;;;;;7.03;6.30;;;18.80;99.90;;;;;;5012874;28;20514;-73
2023/09/24 08:10:51;;;;;;;6.40;5.87;;;18.60;99.90;;;;;;5011581;28;20516;-74
2023/09/24 08:13:21;;;;;;;5.93;5.43;;;18.70;99.90;;;;;;5011501;28;20585;-74
2023/09/24 08:15:50;;;;;;;6.27;5.70;;;18.90;99.90;;;;;;5012753;28;20499;-74
2023/09/24 08:18:20;;;;;;;5.77;5.37;;;19.00;99.90;;;;;;5010448;28;20473;-74
2023/09/24 08:20:45;;;;;;;5.90;5.23;;;19.00;99.90;;;;;;5012325;28;20433;-74
2023/09/24 08:23:13;;;;;;;5.30;4.83;;;19.10;99.90;;;;;;5012547;28;20421;-74
2023/09/24 08:25:41;;;;;;;6.37;4.80;;;19.20;99.90;;;;;;5011753;28;20191;-74
2023/09/24 08:28:08;;;;;;;4.63;4.23;;;19.20;99.90;;;;;;5009655;28;20773;-74
2023/09/24 08:30:34;;;;;;;4.90;4.60;;;19.30;99.90;;;;;;5013350;28;20410;-75
2023/09/24 08:33:00;;;;;;;5.27;4.97;;;19.40;99.90;;;;;;5011981;28;20433;-66
2023/09/24 08:35:26;;;;;;;5.40;4.87;;;19.40;99.90;;;;;;5011472;28;20419;-75
2023/09/24 08:37:52;;;;;;;7.77;6.70;;;19.50;99.90;;;;;;5013174;28;20213;-71
2023/09/24 08:40:18;;;;;;;7.90;7.27;;;19.60;99.90;;;;;;5014821;28;20441;-72
2023/09/24 08:42:49;;;;;;;8.67;7.80;;;19.70;99.90;;;;;;5012602;28;20421;-72
2023/09/24 08:45:18;;;;;;;5.93;5.40;;;19.70;99.90;;;;;;5011803;28;20422;-72
2023/09/24 08:47:45;;;;;;;6.13;5.63;;;19.70;99.90;;;;;;5011634;28;20437;-71
2023/09/24 08:50:12;;;;;;;5.93;5.53;;;19.80;99.90;;;;;;5009888;28;20426;-72
2023/09/24 08:52:40;;;;;;;8.53;6.70;;;19.90;99.90;;;;;;5011941;28;20821;-71
2023/09/24 08:55:08;;;;;;;6.43;5.90;;;19.90;99.90;;;;;;5012179;28;20410;-71
2023/09/24 08:57:43;;;;;;;5.00;4.20;;;19.90;99.90;;;;;;5011712;28;20461;-74
2023/09/24 09:00:11;;;;;;;5.00;4.57;;;19.70;99.90;;;;;;5010442;28;20521;-73
2023/09/24 09:02:40;;;;;;;119.77;79.43;;;19.70;99.90;;;;;;5010919;28;20415;-74
2023/09/24 09:05:20;;;;;;;44.53;33.37;;;19.80;99.90;;;;;;5010688;28;20433;-73
2023/09/24 09:08:01;;;;;;;5.67;5.17;;;19.80;99.90;;;;;;5011690;28;20430;-74
2023/09/24 09:10:29;;;;;;;5.30;4.90;;;19.90;99.90;;;;;;5011279;28;20547;-73
2023/09/24 09:13:21;;;;;;;7.83;6.43;;;20.00;99.90;;;;;;5011434;28;20469;-72
2023/09/24 09:16:02;;;;;;;5.57;5.07;;;19.90;99.90;;;;;;5011431;28;20525;-73
2023/09/24 09:18:29;;;;;;;6.50;4.50;;;20.00;99.90;;;;;;5011362;28;20461;-73
2023/09/24 09:21:01;;;;;;;7.13;4.97;;;20.10;99.90;;;;;;5011090;28;20430;-74
2023/09/24 09:23:38;;;;;;;4.57;4.17;;;20.10;99.90;;;;;;5010441;28;20513;-74
2023/09/24 09:26:04;;;;;;;3.60;3.30;;;20.30;99.90;;;;;;5011138;28;20484;-72
2023/09/24 09:28:34;;;;;;;3.33;3.03;;;20.50;98.60;;;;;;5012778;28;20438;-73
2023/09/24 09:31:10;;;;;;;3.23;3.00;;;20.70;96.50;;;;;;5014871;28;20191;-73
2023/09/24 09:33:42;;;;;;;4.73;4.30;;;20.90;96.70;;;;;;5012564;28;20496;-77
2023/09/24 09:36:21;;;;;;;3.27;3.07;;;21.10;95.20;;;;;;5015408;28;20440;-75
2023/09/24 09:38:47;;;;;;;28.23;24.57;;;21.10;94.40;;;;;;5015479;28;20449;-74
2023/09/24 09:41:16;;;;;;;5.33;4.80;;;21.30;94.40;;;;;;5011892;28;20516;-75
2023/09/24 09:43:44;;;;;;;3.13;2.93;;;21.20;92.30;;;;;;5016174;28;20186;-76
2023/09/24 09:46:12;;;;;;;4.50;3.20;;;21.40;93.80;;;;;;5011898;28;20511;-75
2023/09/24 09:48:40;;;;;;;2.90;2.80;;;21.20;91.40;;;;;;5016149;28;20830;-75
2023/09/24 09:51:10;;;;;;;4.97;3.33;;;21.30;91.00;;;;;;5015624;28;20446;-63
2023/09/24 09:53:39;;;;;;;3.13;2.80;;;21.60;91.70;;;;;;5013219;28;20461;-71
2023/09/24 09:56:06;;;;;;;2.80;2.60;;;21.80;90.70;;;;;;5012905;28;20430;-65
2023/09/24 09:58:39;;;;;;;2.87;2.67;;;21.80;89.20;;;;;;4997480;28;20457;-74
2023/09/24 10:01:06;;;;;;;3.97;3.67;;;21.90;90.30;;;;;;5015529;28;20451;-63
2023/09/24 10:03:38;;;;;;;2.70;2.60;;;22.20;90.10;;;;;;5014955;28;20436;-68
2023/09/24 10:06:07;;;;;;;3.20;2.90;;;22.60;91.30;;;;;;5012562;28;20453;-62
2023/09/24 10:08:41;;;;;;;3.53;3.33;;;22.90;87.40;;;;;;5009901;28;20846;-65
2023/09/24 10:11:12;;;;;;;2.60;2.50;;;23.20;85.80;;;;;;5014785;28;20941;-66
2023/09/24 10:13:43;;;;;;;3.10;3.00;;;23.40;84.20;;;;;;5013272;28;20469;-68
2023/09/24 10:16:24;;;;;;;3.10;2.60;;;23.70;80.60;;;;;;5007975;28;20434;-65
2023/09/24 10:19:02;;;;;;;3.00;2.80;;;23.90;83.00;;;;;;5014428;28;20514;-66
2023/09/24 10:21:31;;;;;;;3.53;3.33;;;24.20;80.60;;;;;;5009835;28;20475;-67
2023/09/24 10:24:20;;;;;;;4.07;3.90;;;24.50;77.90;;;;;;5006662;28;20488;-66
2023/09/24 10:27:03;;;;;;;169.23;133.23;;;24.60;78.30;;;;;;5013081;28;20430;-66
2023/09/24 10:29:53;;;;;;;3.60;3.40;;;24.70;75.50;;;;;;5022671;28;20453;-66
2023/09/24 10:32:21;;;;;;;3.10;2.90;;;24.80;73.70;;;;;;5008650;28;20520;-67
2023/09/24 10:34:55;;;;;;;2.60;2.50;;;24.80;75.90;;;;;;4998234;28;20428;-67
2023/09/24 10:37:23;;;;;;;2.83;2.73;;;24.70;67.40;;;;;;5010785;28;20456;-65
2023/09/24 10:39:58;;;;;;;7.27;6.63;;;24.30;67.90;;;;;;5014148;28;20440;-65
2023/09/24 10:42:45;;;;;;;3.40;3.20;;;24.40;73.10;;;;;;5014466;28;20516;-66
2023/09/24 10:45:12;;;;;;;3.10;2.77;;;24.70;72.20;;;;;;5012234;28;20438;-66
2023/09/24 10:47:44;;;;;;;2.60;2.40;;;24.90;70.30;;;;;;5014821;28;20488;-66
2023/09/24 10:50:25;;;;;;;2.90;2.80;;;25.00;71.40;;;;;;5013126;28;20993;-65
2023/09/24 10:52:58;;;;;;;2.97;2.87;;;25.10;67.90;;;;;;5011365;28;20901;-66
2023/09/24 10:55:30;;;;;;;2.77;2.67;;;25.10;68.60;;;;;;5013129;28;20438;-65
2023/09/24 10:58:08;;;;;;;2.93;2.73;;;25.20;70.60;;;;;;5014312;28;20560;-65
2023/09/24 11:00:35;;;;;;;3.33;3.13;;;25.30;72.60;;;;;;5014198;28;20438;-66
2023/09/24 11:03:09;;;;;;;3.00;2.80;;;25.50;71.40;;;;;;5014372;28;20906;-66
2023/09/24 11:05:40;;;;;;;2.90;2.73;;;25.60;70.40;;;;;;5013810;28;20430;-67
2023/09/24 11:08:07;;;;;;;6.80;6.20;;;25.80;68.60;;;;;;5013896;28;20441;-66
2023/09/24 11:10:33;;;;;;;4.50;4.10;;;25.80;68.10;;;;;;5014745;28;20422;-66
2023/09/24 11:13:03;;;;;;;2.93;2.80;;;25.90;69.30;;;;;;5014001;28;20524;-66
2023/09/24 11:15:34;;;;;;;4.97;3.40;;;26.00;66.80;;;;;;5012753;28;20433;-66
2023/09/24 11:18:01;;;;;;;3.53;2.77;;;26.00;65.50;;;;;;5011863;28;20520;-66
2023/09/24 11:20:35;;;;;;;3.20;3.00;;;26.00;65.20;;;;;;5012646;28;20948;-66
2023/09/24 11:23:02;;;;;;;182.93;127.53;;;25.40;64.90;;;;;;5012491;28;20496;-66
2023/09/24 11:25:30;;;;;;;70.83;60.63;;;25.40;72.60;;;;;;5013769;28;20670;-65
2023/09/24 11:28:01;;;;;;;3.83;3.53;;;25.40;68.00;;;;;;5013343;28;20430;-66
2023/09/24 11:30:43;;;;;;;2.87;2.77;;;25.40;69.40;;;;;;5012121;28;20426;-66
2023/09/24 11:33:17;;;;;;;3.43;3.10;;;25.30;68.90;;;;;;4994976;28;20806;-61
2023/09/24 11:35:44;;;;;;;2.63;2.53;;;25.50;69.50;;;;;;5013600;28;20434;-65
2023/09/24 11:38:10;;;;;;;3.20;3.07;;;25.60;68.00;;;;;;5012496;28;20560;-60
2023/09/24 11:40:38;;;;;;;2.93;2.83;;;25.70;68.20;;;;;;5013141;28;20929;-65
2023/09/24 11:43:06;;;;;;;2.90;2.70;;;25.50;65.80;;;;;;5013429;28;20434;-68
2023/09/24 11:45:53;;;;;;;2.93;2.73;;;25.40;67.00;;;;;;5009297;28;20529;-65
2023/09/24 11:48:21;;;;;;;2.57;2.47;;;25.30;68.50;;;;;;4988364;28;20770;-66
2023/09/24 11:50:52;;;;;;;2.70;2.50;;;25.40;68.40;;;;;;5009386;28;20437;-67
2023/09/24 11:53:20;;;;;;;2.77;2.57;;;25.50;68.20;;;;;;4993341;28;20962;-66
2023/09/24 11:55:47;;;;;;;3.07;2.87;;;25.60;72.10;;;;;;5008986;28;20426;-66
2023/09/24 11:58:13;;;;;;;2.80;2.60;;;25.60;70.10;;;;;;5012160;28;20520;-65
2023/09/24 12:00:43;;;;;;;2.70;2.60;;;25.50;68.00;;;;;;5012690;28;20429;-66
2023/09/24 12:03:09;;;;;;;3.23;3.03;;;24.90;66.50;;;;;;5013877;28;20501;-66
2023/09/24 12:05:35;;;;;;;2.83;2.73;;;24.80;72.30;;;;;;5012390;28;20430;-66
2023/09/24 12:08:03;;;;;;;3.30;3.10;;;24.30;65.80;;;;;;5013144;28;20465;-66
2023/09/24 12:10:29;;;;;;;2.87;2.77;;;24.20;69.70;;;;;;5013123;28;20398;-66
2023/09/24 12:13:01;;;;;;;2.70;2.50;;;23.80;67.80;;;;;;5012764;28;20454;-66
2023/09/24 12:15:29;;;;;;;3.23;3.03;;;23.60;71.20;;;;;;5011981;28;20768;-66
2023/09/24 12:17:56;;;;;;;3.20;3.00;;;23.30;73.80;;;;;;5015354;28;20444;-66
2023/09/24 12:20:26;;;;;;;3.40;3.20;;;23.10;75.90;;;;;;5012157;28;20426;-67
2023/09/24 12:22:51;;;;;;;3.20;3.10;;;22.80;75.60;;;;;;5013063;28;20426;-67
2023/09/24 12:25:17;;;;;;;3.50;3.20;;;22.60;75.30;;;;;;5013180;28;20473;-65
2023/09/24 12:27:43;;;;;;;5.90;5.30;;;22.40;74.10;;;;;;5011906;28;20182;-66
2023/09/24 12:30:11;;;;;;;24.07;19.87;;;22.50;76.20;;;;;;5012082;28;20174;-67
2023/09/24 12:32:39;;;;;;;11.60;10.40;;;22.20;74.70;;;;;;4995095;28;20590;-66
2023/09/24 12:35:10;;;;;;;4.90;4.50;;;22.00;74.80;;;;;;5013350;28;20901;-67
2023/09/24 12:37:37;;;;;;;3.43;3.20;;;21.80;78.10;;;;;;5009633;28;20462;-66
2023/09/24 12:40:07;;;;;;;3.40;3.20;;;21.40;76.90;;;;;;5011140;28;20470;-67
2023/09/24 12:42:40;;;;;;;2.90;2.70;;;21.20;78.90;;;;;;5010274;28;20438;-69
2023/09/24 12:45:08;;;;;;;2.90;2.80;;;21.20;77.90;;;;;;5011609;28;20438;-67
2023/09/24 12:47:38;;;;;;;2.60;2.50;;;21.30;80.10;;;;;;5010897;28;21003;-71
2023/09/24 12:50:09;;;;;;;2.53;2.43;;;21.40;79.20;;;;;;5011939;28;20488;-69
2023/09/24 12:52:38;;;;;;;4.07;3.20;;;21.50;79.10;;;;;;5010229;28;20425;-68